Aviation Digital Data Service (ADDS)

Output produced by METARs form (0137 UTC 23 November 2017)
found at http://www.aviationweather.gov/adds/metars/
 
FBFT 230000Z 2303/2312 10010KT CAVOK
       
FBMN 230000Z 2303/2312 16005KT CAVOK 
     BECMG 2310/2312 FEW040CB
       
FBSK 230100Z /////KT CAVOK 21/// Q1015 NOSIG
TAF FBSK 221500Z 2218/2324 25008KT 9999 SCT030 FEW040CB 
     PROB30 
     TEMPO 2219/2224 TSRA 
     FM230300 07014G28KT CAVOK 
     BECMG 2312/2314 FEW040CB PRO B30 
     TEMPO 2316/2324 TSRA
       
FBFT 230000Z 2303/2312 10010KT CAVOK